aviador You're here:

OIKB Decoded Metar

BANDAR ABBAS in IRAN
Report Time2017-09-25 04:00:00
UTC Time2017-09-25 04:23:20
Flight Rules vfr VFR
Wind220° at 04 kt
W.Decomp.*RWY 21: 4.0 kt HW 0.6 kt RCW
W.Rank220° ranks 12
Current wind is below 220° avg. (8.3)
Visibility9999 m
Phenomena:N/A
Clouds:N/A
Expected CloudBase > 6,800 ft AGL from Temp-Dew spread
CeilingNone
Temp31°C (ISA +16)
Dew Point14°C (35% RH)
Heat Index30.3°C
AAT30.7°C
QNH1008 hPa
Density Alt2,254 ft
Elevation33 ft
Report Wrong Elevation
Raw Report
METAR OIKB 250400Z 22004KT CAVOK 31/14 Q1008 A2977 NOSIG=

Extra information for OIKB:More info

Metar Taf Metar & Taf Last 4 Metars F.Rules Stats Wind Profile Meteogram Temp Stats Airport Information Weather charts Add Link Nearby VenuesMetar ALERT Operation Metar Decoded Social comments